Tri-State, Milton J. Ferguson Field Huntington US
ICAO: KHTS
IATA: HTS
Category: Large
Scheduled Services: Yes

Elevation: 828 ft
TransAlt. 18000 ft.

Airport Communications:
HUNTINGTON APP/DEP:119.75
ATIS:125.2
CLNC DEL:118.05
GND:121.9
ELKINS RDO:122.2
HUNTINGTON TWR:118.5
UNICOM:122.95

KHTS Zoom In..

Runways:

(A) RW 12 length 7017 ft width 150 ft
ILS 109.90 / hdg 118

(B) RW 30 length 7017 ft width 150 ft
ILS 108.70 / hdg 298

Location; KHTS
Day. 23 / Time. 06.54 Zulu
* Altimeter: 29.79
* Temperature: 20° c. 68°f.
* Wind from: 100° Speed 04 kn.
Dewpoint: 19° c.
Visibility: 1/4 Statute Miles.
Conditions: Fog.

KHTS 230654Z 10004KT 1/4SM FG VV002 20/19 A2979 RMK AO2 T02000189


Wind From 100°
Speed 04 kn.

 
 
jpsmedia.com for Web Design worldairports.se 2018   terms of use